Observation data for White River Lake on 06/26/2019      Previous  Date  Next       Current Mesonet Observations  Soil Data  Daily Summary Page  Observations in Plain Language
KWVS 260500Z 10009KT 24/14 A3009 RMK A01 T02400143  RH  057%=      5-min Rain = 0
KWVS 260505Z 09010G15KT 24/14 A3009 RMK A01 T02400140  RH  056%=      5-min Rain = 0
KWVS 260510Z 09010KT 24/14 A3009 RMK A01 T02390138  RH  055%=      5-min Rain = 0
KWVS 260515Z 10011KT 24/14 A3008 RMK A01 T02390140  RH  056%=      5-min Rain = 0
KWVS 260520Z 11010KT 24/14 A3008 RMK A01 T02390144  RH  058%=      5-min Rain = 0
KWVS 260525Z 10006KT 24/15 A3009 RMK A01 T02380145  RH  058%=      5-min Rain = 0
KWVS 260530Z 09005KT 24/14 A301 RMK A01 T02370144  RH  058%=      5-min Rain = 0
KWVS 260535Z 09006KT 24/14 A301 RMK A01 T02360143  RH  058%=      5-min Rain = 0
KWVS 260540Z 09006KT 24/14 A301 RMK A01 T02360140  RH  057%=      5-min Rain = 0
KWVS 260545Z 08006KT 23/14 A301 RMK A01 T02340139  RH  058%=      5-min Rain = 0
KWVS 260550Z 07005KT 23/14 A3011 RMK A01 T02330139  RH  058%=      5-min Rain = 0
KWVS 260555Z 06005KT 23/14 A3011 RMK A01 T02310139  RH  059%=      5-min Rain = 0
KWVS 260600Z 05006KT 23/14 A3011 RMK A01 T02290140  RH  060%=      5-min Rain = 0
KWVS 260605Z 07005KT 23/14 A301 RMK A01 T02310140  RH  059%=      5-min Rain = 0
KWVS 260610Z 09005KT 23/14 A301 RMK A01 T02310140  RH  059%=      5-min Rain = 0
KWVS 260615Z 09006KT 23/14 A301 RMK A01 T02300142  RH  060%=      5-min Rain = 0
KWVS 260620Z 11006KT 23/15 A301 RMK A01 T02320145  RH  061%=      5-min Rain = 0
KWVS 260625Z 10005KT 23/15 A301 RMK A01 T02310146  RH  061%=      5-min Rain = 0
KWVS 260630Z 09007KT 23/15 A3009 RMK A01 T02290145  RH  062%=      5-min Rain = 0
KWVS 260635Z 09007KT 23/14 A3009 RMK A01 T02280143  RH  062%=      5-min Rain = 0
KWVS 260640Z 10007KT 23/14 A3009 RMK A01 T02260143  RH  062%=      5-min Rain = 0
KWVS 260645Z 10007KT 23/14 A3009 RMK A01 T02250144  RH  063%=      5-min Rain = 0
KWVS 260650Z 10007KT 22/15 A3009 RMK A01 T02240145  RH  064%=      5-min Rain = 0
KWVS 260655Z 10006KT 23/15 A3009 RMK A01 T02250147  RH  064%=      5-min Rain = 0
KWVS 260700Z 10006KT 22/15 A3008 RMK A01 T02240147  RH  065%=      5-min Rain = 0
KWVS 260705Z 12006KT 22/15 A3008 RMK A01 T02230148  RH  065%=      5-min Rain = 0
KWVS 260710Z 13008KT 22/15 A3007 RMK A01 T02230149  RH  066%=      5-min Rain = 0
KWVS 260715Z 14007KT 22/15 A3006 RMK A01 T02220150  RH  067%=      5-min Rain = 0
KWVS 260720Z 15007KT 22/15 A3006 RMK A01 T02190150  RH  068%=      5-min Rain = 0
KWVS 260725Z 14007KT 22/15 A3005 RMK A01 T02180151  RH  069%=      5-min Rain = 0
KWVS 260730Z 12007KT 22/15 A3005 RMK A01 T02170153  RH  070%=      5-min Rain = 0
KWVS 260735Z 11008KT 22/16 A3005 RMK A01 T02180155  RH  071%=      5-min Rain = 0
KWVS 260740Z 11010KT 22/16 A3005 RMK A01 T02210157  RH  070%=      5-min Rain = 0
KWVS 260745Z 13009KT 22/16 A3005 RMK A01 T02220157  RH  070%=      5-min Rain = 0
KWVS 260750Z 14006KT 22/16 A3005 RMK A01 T02200158  RH  071%=      5-min Rain = 0
KWVS 260755Z 15005KT 22/16 A3005 RMK A01 T02180158  RH  072%=      5-min Rain = 0
KWVS 260800Z 16006KT 22/16 A3005 RMK A01 T02150158  RH  073%=      5-min Rain = 0
KWVS 260805Z 17007KT 21/16 A3004 RMK A01 T02130158  RH  074%=      5-min Rain = 0
KWVS 260810Z 16009KT 21/16 A3004 RMK A01 T02130159  RH  075%=      5-min Rain = 0
KWVS 260815Z 16007KT 21/16 A3004 RMK A01 T02140159  RH  074%=      5-min Rain = 0
KWVS 260820Z 15008KT 21/16 A3005 RMK A01 T02140159  RH  074%=      5-min Rain = 0
KWVS 260825Z 15010KT 22/16 A3004 RMK A01 T02150160  RH  074%=      5-min Rain = 0
KWVS 260830Z 15010KT 22/16 A3004 RMK A01 T02160160  RH  074%=      5-min Rain = 0
KWVS 260835Z 15009KT 22/16 A3003 RMK A01 T02160160  RH  074%=      5-min Rain = 0
KWVS 260840Z 17010KT 22/16 A3003 RMK A01 T02150160  RH  074%=      5-min Rain = 0
KWVS 260845Z 18012KT 22/16 A3003 RMK A01 T02160161  RH  074%=      5-min Rain = 0
KWVS 260850Z 18012KT 22/16 A3002 RMK A01 T02210161  RH  072%=      5-min Rain = 0
KWVS 260855Z 18011KT 22/16 A3003 RMK A01 T02200161  RH  072%=      5-min Rain = 0
KWVS 260900Z 18010KT 22/16 A3003 RMK A01 T02180160  RH  073%=      5-min Rain = 0
KWVS 260905Z 19011KT 22/16 A3003 RMK A01 T02180161  RH  073%=      5-min Rain = 0
KWVS 260910Z 19011KT 22/16 A3003 RMK A01 T02160161  RH  074%=      5-min Rain = 0
KWVS 260915Z 20010KT 21/16 A3003 RMK A01 T02140161  RH  075%=      5-min Rain = 0
KWVS 260920Z 19010KT 21/16 A3003 RMK A01 T02110161  RH  076%=      5-min Rain = 0
KWVS 260925Z 19010KT 21/16 A3003 RMK A01 T02100161  RH  077%=      5-min Rain = 0
KWVS 260930Z 18009KT 21/16 A3003 RMK A01 T02100161  RH  077%=      5-min Rain = 0
KWVS 260935Z 19009KT 21/16 A3004 RMK A01 T02090161  RH  077%=      5-min Rain = 0
KWVS 260940Z 20008KT 21/16 A3004 RMK A01 T02090160  RH  078%=      5-min Rain = 0
KWVS 260945Z 18008KT 21/16 A3004 RMK A01 T02070160  RH  078%=      5-min Rain = 0
KWVS 260950Z 18008KT 21/16 A3004 RMK A01 T02070161  RH  078%=      5-min Rain = 0
KWVS 260955Z 18009KT 21/16 A3004 RMK A01 T02060160  RH  079%=      5-min Rain = 0
KWVS 261000Z 18009KT 21/16 A3004 RMK A01 T02050161  RH  079%=      5-min Rain = 0
KWVS 261005Z 18008KT 20/16 A3004 RMK A01 T02040160  RH  080%=      5-min Rain = 0
KWVS 261010Z 18008KT 20/16 A3004 RMK A01 T02030160  RH  080%=      5-min Rain = 0
KWVS 261015Z 19008KT 20/16 A3004 RMK A01 T02040160  RH  080%=      5-min Rain = 0
KWVS 261020Z 19009KT 20/16 A3004 RMK A01 T02040160  RH  080%=      5-min Rain = 0
KWVS 261025Z 20009KT 20/16 A3004 RMK A01 T02030160  RH  080%=      5-min Rain = 0
KWVS 261030Z 21008KT 20/16 A3004 RMK A01 T02020160  RH  080%=      5-min Rain = 0
KWVS 261035Z 21008KT 20/16 A3004 RMK A01 T01980159  RH  082%=      5-min Rain = 0
KWVS 261040Z 21007KT 20/16 A3004 RMK A01 T01970159  RH  083%=      5-min Rain = 0
KWVS 261045Z 21006KT 20/16 A3004 RMK A01 T01950159  RH  083%=      5-min Rain = 0
KWVS 261050Z 21006KT 19/16 A3005 RMK A01 T01940158  RH  083%=      5-min Rain = 0
KWVS 261055Z 20006KT 20/16 A3005 RMK A01 T01960159  RH  083%=      5-min Rain = 0
KWVS 261100Z 20007KT 20/16 A3005 RMK A01 T01980159  RH  082%=      5-min Rain = 0
KWVS 261105Z 20007KT 20/16 A3005 RMK A01 T01990159  RH  082%=      5-min Rain = 0
KWVS 261110Z 19007KT 20/16 A3005 RMK A01 T02000159  RH  081%=      5-min Rain = 0
KWVS 261115Z 19008KT 20/16 A3006 RMK A01 T02010160  RH  081%=      5-min Rain = 0
KWVS 261120Z 19007KT 20/16 A3006 RMK A01 T02020160  RH  081%=      5-min Rain = 0
KWVS 261125Z 19006KT 20/16 A3006 RMK A01 T01990160  RH  082%=      5-min Rain = 0
KWVS 261130Z 20007KT 20/16 A3007 RMK A01 T01990160  RH  082%=      5-min Rain = 0
KWVS 261135Z 19007KT 20/16 A3007 RMK A01 T01990160  RH  082%=      5-min Rain = 0
KWVS 261140Z 18008KT 20/16 A3007 RMK A01 T01980160  RH  083%=      5-min Rain = 0
KWVS 261145Z 18008KT 20/16 A3007 RMK A01 T01970160  RH  083%=      5-min Rain = 0
KWVS 261150Z 18007KT 20/16 A3007 RMK A01 T01970160  RH  083%=      5-min Rain = 0
KWVS 261155Z 19007KT 20/16 A3007 RMK A01 T01960160  RH  084%=      5-min Rain = 0
KWVS 261200Z 19007KT 20/16 A3008 RMK A01 T01950160  RH  084%=      5-min Rain = 0
KWVS 261205Z 17007KT 20/16 A3008 RMK A01 T01950161  RH  084%=      5-min Rain = 0
KWVS 261210Z 17006KT 20/16 A3008 RMK A01 T01960160  RH  084%=      5-min Rain = 0
KWVS 261215Z 18006KT 20/16 A3008 RMK A01 T01960161  RH  084%=      5-min Rain = 0
KWVS 261220Z 18006KT 20/16 A3009 RMK A01 T01980162  RH  084%=      5-min Rain = 0
KWVS 261225Z 19006KT 20/16 A3009 RMK A01 T02000163  RH  083%=      5-min Rain = 0
KWVS 261230Z 18005KT 20/16 A3009 RMK A01 T02020163  RH  082%=      5-min Rain = 0
KWVS 261235Z 18005KT 20/16 A3009 RMK A01 T02040164  RH  082%=      5-min Rain = 0
KWVS 261240Z 18005KT 21/16 A3009 RMK A01 T02050164  RH  081%=      5-min Rain = 0
KWVS 261245Z 18004KT 21/17 A3009 RMK A01 T02080165  RH  080%=      5-min Rain = 0
KWVS 261250Z 16004KT 21/17 A301 RMK A01 T02100165  RH  079%=      5-min Rain = 0
KWVS 261255Z 17004KT 21/17 A301 RMK A01 T02120166  RH  079%=      5-min Rain = 0
KWVS 261300Z 16004KT 22/17 A301 RMK A01 T02150167  RH  078%=      5-min Rain = 0
KWVS 261305Z 17004KT 22/17 A301 RMK A01 T02170167  RH  077%=      5-min Rain = 0
KWVS 261310Z 18004KT 22/17 A301 RMK A01 T02180168  RH  077%=      5-min Rain = 0
KWVS 261315Z 18004KT 22/17 A3011 RMK A01 T02210170  RH  077%=      5-min Rain = 0
KWVS 261320Z 20006KT 22/17 A301 RMK A01 T02210169  RH  076%=      5-min Rain = 0
KWVS 261325Z 21007KT 22/17 A301 RMK A01 T02240170  RH  075%=      5-min Rain = 0
KWVS 261330Z 21007KT 23/17 A301 RMK A01 T02270170  RH  074%=      5-min Rain = 0
KWVS 261335Z 20007KT 23/17 A301 RMK A01 T02280171  RH  074%=      5-min Rain = 0
KWVS 261340Z 21008KT 23/17 A301 RMK A01 T02300171  RH  073%=      5-min Rain = 0
KWVS 261345Z 20009KT 23/17 A3011 RMK A01 T02310171  RH  073%=      5-min Rain = 0
KWVS 261350Z 21009KT 23/17 A3011 RMK A01 T02320171  RH  072%=      5-min Rain = 0
KWVS 261355Z 21011KT 23/17 A3011 RMK A01 T02330170  RH  071%=      5-min Rain = 0
KWVS 261400Z 21011KT 23/17 A3011 RMK A01 T02340170  RH  071%=      5-min Rain = 0
KWVS 261405Z 22011KT 24/17 A3011 RMK A01 T02360171  RH  070%=      5-min Rain = 0
KWVS 261410Z 20011G16KT 24/17 A3011 RMK A01 T02380171  RH  069%=      5-min Rain = 0
KWVS 261415Z 21010G15KT 24/17 A3012 RMK A01 T02420173  RH  069%=      5-min Rain = 0
KWVS 261420Z 20010G15KT 24/17 A3012 RMK A01 T02440173  RH  068%=      5-min Rain = 0
KWVS 261425Z 20011KT 24/17 A3012 RMK A01 T02430172  RH  068%=      5-min Rain = 0
KWVS 261430Z 20012KT 24/17 A3012 RMK A01 T02440173  RH  068%=      5-min Rain = 0
KWVS 261435Z 20010KT 25/18 A3012 RMK A01 T02490175  RH  067%=      5-min Rain = 0
KWVS 261440Z 20012KT 25/17 A3012 RMK A01 T02490173  RH  066%=      5-min Rain = 0
KWVS 261445Z 19010KT 25/18 A3012 RMK A01 T02510175  RH  066%=      5-min Rain = 0
KWVS 261450Z 20009KT 26/18 A3012 RMK A01 T02560177  RH  065%=      5-min Rain = 0
KWVS 261455Z 20009KT 26/18 A3012 RMK A01 T02580177  RH  064%=      5-min Rain = 0
KWVS 261500Z 20009KT 26/18 A3012 RMK A01 T02590175  RH  063%=      5-min Rain = 0
KWVS 261505Z 20009KT 26/18 A3012 RMK A01 T02640177  RH  062%=      5-min Rain = 0
KWVS 261510Z 19010KT 26/18 A3012 RMK A01 T02630175  RH  061%=      5-min Rain = 0
KWVS 261515Z 20009KT 27/18 A3012 RMK A01 T02660176  RH  061%=      5-min Rain = 0
KWVS 261520Z 19010KT 27/17 A3011 RMK A01 T02670174  RH  060%=      5-min Rain = 0
KWVS 261525Z 18011KT 27/17 A3011 RMK A01 T02700174  RH  059%=      5-min Rain = 0
KWVS 261530Z 19010KT 27/17 A3011 RMK A01 T02710173  RH  058%=      5-min Rain = 0
KWVS 261535Z 18012KT 27/17 A3011 RMK A01 T02720172  RH  057%=      5-min Rain = 0
KWVS 261540Z 18010KT 27/18 A3011 RMK A01 T02720175  RH  058%=      5-min Rain = 0
KWVS 261545Z 17009KT 28/18 A3011 RMK A01 T02770176  RH  057%=      5-min Rain = 0
KWVS 261550Z 19009G14KT 28/18 A3011 RMK A01 T02770175  RH  056%=      5-min Rain = 0
KWVS 261555Z 18009KT 28/17 A3011 RMK A01 T02780173  RH  056%=      5-min Rain = 0
KWVS 261600Z 16011G16KT 28/17 A3011 RMK A01 T02820170  RH  053%=      5-min Rain = 0
KWVS 261605Z 19011KT 28/17 A3011 RMK A01 T02810170  RH  054%=      5-min Rain = 0
KWVS 261610Z 17011KT 28/17 A3011 RMK A01 T02840170  RH  053%=      5-min Rain = 0
KWVS 261615Z 17011KT 28/17 A3011 RMK A01 T02830168  RH  052%=      5-min Rain = 0
KWVS 261620Z 18010KT 29/17 A3012 RMK A01 T02890170  RH  051%=      5-min Rain = 0
KWVS 261625Z 15011KT 29/17 A3012 RMK A01 T02870166  RH  050%=      5-min Rain = 0
KWVS 261630Z 15011G17KT 29/17 A3012 RMK A01 T02880168  RH  051%=      5-min Rain = 0
KWVS 261635Z 15011KT 29/17 A3012 RMK A01 T02920166  RH  049%=      5-min Rain = 0
KWVS 261640Z 15010G15KT 29/17 A3012 RMK A01 T02910168  RH  050%=      5-min Rain = 0
KWVS 261645Z 14011KT 29/17 A3012 RMK A01 T02940170  RH  050%=      5-min Rain = 0
KWVS 261650Z 14010G15KT 30/17 A3012 RMK A01 T02970169  RH  048%=      5-min Rain = 0
KWVS 261655Z 15012G17KT 30/17 A3012 RMK A01 T02970166  RH  047%=      5-min Rain = 0
KWVS 261700Z 15012G17KT 30/17 A3012 RMK A01 T02980167  RH  048%=      5-min Rain = 0
KWVS 261705Z 15012G17KT 30/17 A3012 RMK A01 T02980169  RH  048%=      5-min Rain = 0
KWVS 261710Z 15012G17KT 30/17 A3012 RMK A01 T02980167  RH  048%=      5-min Rain = 0
KWVS 261715Z 17012G19KT 30/17 A3012 RMK A01 T02980170  RH  049%=      5-min Rain = 0
KWVS 261720Z 15012KT 30/17 A3013 RMK A01 T02990169  RH  048%=      5-min Rain = 0
KWVS 261725Z 16012G17KT 30/17 A3012 RMK A01 T02990172  RH  049%=      5-min Rain = 0
KWVS 261730Z 14010KT 30/17 A3012 RMK A01 T03020174  RH  049%=      5-min Rain = 0
KWVS 261735Z 16013G19KT 30/17 A3012 RMK A01 T03040168  RH  046%=      5-min Rain = 0
KWVS 261740Z 15013G18KT 30/17 A3012 RMK A01 T03020169  RH  047%=      5-min Rain = 0
KWVS 261745Z 15010G18KT 31/17 A3012 RMK A01 T03050172  RH  047%=      5-min Rain = 0
KWVS 261750Z 16011G16KT 30/17 A3012 RMK A01 T03040173  RH  048%=      5-min Rain = 0
KWVS 261755Z 15012G19KT 30/17 A3012 RMK A01 T03040172  RH  047%=      5-min Rain = 0
KWVS 261800Z 16012G18KT 31/17 A3012 RMK A01 T03080171  RH  046%=      5-min Rain = 0
KWVS 261805Z 16011G16KT 31/17 A3012 RMK A01 T03080171  RH  046%=      5-min Rain = 0
KWVS 261810Z 17010G15KT 31/17 A3012 RMK A01 T03080168  RH  045%=      5-min Rain = 0
KWVS 261815Z 17014KT 31/17 A3012 RMK A01 T03080167  RH  045%=      5-min Rain = 0
KWVS 261820Z 15014KT 31/17 A3012 RMK A01 T03080166  RH  045%=      5-min Rain = 0
KWVS 261825Z 16012G17KT 31/17 A3012 RMK A01 T03090167  RH  045%=      5-min Rain = 0
KWVS 261830Z 17012G18KT 31/17 A3011 RMK A01 T03110168  RH  045%=      5-min Rain = 0
KWVS 261835Z 15013KT 31/16 A3011 RMK A01 T03130164  RH  043%=      5-min Rain = 0
KWVS 261840Z 14010G17KT 31/17 A3011 RMK A01 T03120166  RH  044%=      5-min Rain = 0
KWVS 261845Z 16011G20KT 32/17 A3011 RMK A01 T03150166  RH  043%=      5-min Rain = 0
KWVS 261850Z 18015G20KT 31/16 A3011 RMK A01 T03120161  RH  042%=      5-min Rain = 0
KWVS 261855Z 16013KT 31/17 A3011 RMK A01 T03140165  RH  043%=      5-min Rain = 0
KWVS 261900Z 16015KT 32/16 A3011 RMK A01 T03170161  RH  041%=      5-min Rain = 0
KWVS 261905Z 15014KT 31/16 A301 RMK A01 T03130159  RH  041%=      5-min Rain = 0
KWVS 261910Z 15013KT 32/16 A301 RMK A01 T03180159  RH  040%=      5-min Rain = 0
KWVS 261915Z 15011G18KT 32/16 A301 RMK A01 T03180162  RH  041%=      5-min Rain = 0
KWVS 261920Z 16015G21KT 32/16 A301 RMK A01 T03170160  RH  041%=      5-min Rain = 0
KWVS 261925Z 15015G20KT 32/16 A301 RMK A01 T03180163  RH  042%=      5-min Rain = 0
KWVS 261930Z 16014G23KT 32/17 A301 RMK A01 T03150168  RH  043%=      5-min Rain = 0
KWVS 261935Z 15014G21KT 32/16 A301 RMK A01 T03170164  RH  042%=      5-min Rain = 0
KWVS 261940Z 17013KT 32/16 A301 RMK A01 T03170164  RH  042%=      5-min Rain = 0
KWVS 261945Z 16015G20KT 32/16 A301 RMK A01 T03180163  RH  041%=      5-min Rain = 0
KWVS 261950Z 16013G19KT 32/16 A301 RMK A01 T03170161  RH  041%=      5-min Rain = 0
KWVS 261955Z 17013G18KT 32/17 A301 RMK A01 T03170166  RH  042%=      5-min Rain = 0
KWVS 262000Z 15013G20KT 32/17 A301 RMK A01 T03210168  RH  042%=      5-min Rain = 0
KWVS 262005Z 17011G18KT 32/17 A301 RMK A01 T03220165  RH  041%=      5-min Rain = 0
KWVS 262010Z 16012G18KT 32/17 A301 RMK A01 T03200166  RH  042%=      5-min Rain = 0
KWVS 262015Z 16014G20KT 32/17 A301 RMK A01 T03200166  RH  042%=      5-min Rain = 0
KWVS 262020Z 17013G19KT 32/17 A301 RMK A01 T03200169  RH  042%=      5-min Rain = 0
KWVS 262025Z 16013G19KT 32/17 A301 RMK A01 T03180168  RH  043%=      5-min Rain = 0
KWVS 262030Z 16014G20KT 32/17 A3009 RMK A01 T03220167  RH  041%=      5-min Rain = 0
KWVS 262035Z 15012KT 32/17 A301 RMK A01 T03180171  RH  044%=      5-min Rain = 0
KWVS 262040Z 15014G22KT 32/17 A3009 RMK A01 T03190172  RH  044%=      5-min Rain = 0
KWVS 262045Z 15014G21KT 32/17 A301 RMK A01 T03160170  RH  044%=      5-min Rain = 0
KWVS 262050Z 15013G18KT 32/17 A301 RMK A01 T03160165  RH  042%=      5-min Rain = 0
KWVS 262055Z 16012G17KT 32/17 A3009 RMK A01 T03180171  RH  044%=      5-min Rain = 0
KWVS 262100Z 17014G19KT 32/17 A3009 RMK A01 T03150166  RH  043%=      5-min Rain = 0
KWVS 262105Z 16013G18KT 32/16 A3009 RMK A01 T03150163  RH  042%=      5-min Rain = 0
KWVS 262110Z 16013G22KT 32/17 A3009 RMK A01 T03160167  RH  043%=      5-min Rain = 0
KWVS 262115Z 16012G17KT 32/17 A3009 RMK A01 T03160169  RH  043%=      5-min Rain = 0
KWVS 262120Z 15013G19KT 32/17 A3009 RMK A01 T03170169  RH  043%=      5-min Rain = 0
KWVS 262125Z 15012G17KT 32/17 A3009 RMK A01 T03180167  RH  042%=      5-min Rain = 0
KWVS 262130Z 16014KT 32/16 A3009 RMK A01 T03160162  RH  042%=      5-min Rain = 0
KWVS 262135Z 16010G15KT 32/16 A3009 RMK A01 T03150160  RH  041%=      5-min Rain = 0
KWVS 262140Z 15011G17KT 32/16 A3008 RMK A01 T03170156  RH  040%=      5-min Rain = 0
KWVS 262145Z 16012G17KT 32/16 A3008 RMK A01 T03180161  RH  041%=      5-min Rain = 0
KWVS 262150Z 17012KT 32/16 A3008 RMK A01 T03150155  RH  040%=      5-min Rain = 0
KWVS 262155Z 17012KT 32/15 A3008 RMK A01 T03170154  RH  039%=      5-min Rain = 0
KWVS 262200Z 17012KT 32/16 A3008 RMK A01 T03180158  RH  040%=      5-min Rain = 0
KWVS 262205Z 16013KT 32/15 A3008 RMK A01 T03170154  RH  039%=      5-min Rain = 0
KWVS 262210Z 16012G17KT 32/16 A3008 RMK A01 T03180155  RH  039%=      5-min Rain = 0
KWVS 262215Z 14013G18KT 32/16 A3008 RMK A01 T03170159  RH  040%=      5-min Rain = 0
KWVS 262220Z 15013G19KT 32/16 A3008 RMK A01 T03190157  RH  040%=      5-min Rain = 0
KWVS 262225Z 16012KT 32/16 A3007 RMK A01 T03180158  RH  040%=      5-min Rain = 0
KWVS 262230Z 16013G19KT 32/16 A3007 RMK A01 T03180155  RH  039%=      5-min Rain = 0
KWVS 262235Z 15013KT 32/15 A3007 RMK A01 T03150149  RH  038%=      5-min Rain = 0
KWVS 262240Z 16012KT 32/15 A3007 RMK A01 T03170152  RH  039%=      5-min Rain = 0
KWVS 262245Z 15011KT 32/16 A3007 RMK A01 T03180156  RH  039%=      5-min Rain = 0
KWVS 262250Z 14012G17KT 32/15 A3007 RMK A01 T03160152  RH  039%=      5-min Rain = 0
KWVS 262255Z 14014G20KT 32/15 A3007 RMK A01 T03170151  RH  039%=      5-min Rain = 0
KWVS 262300Z 15013G18KT 32/15 A3007 RMK A01 T03150147  RH  038%=      5-min Rain = 0
KWVS 262305Z 13011G16KT 32/15 A3007 RMK A01 T03170150  RH  038%=      5-min Rain = 0
KWVS 262310Z 16013KT 32/15 A3007 RMK A01 T03160150  RH  038%=      5-min Rain = 0
KWVS 262315Z 14011G16KT 31/15 A3007 RMK A01 T03130152  RH  040%=      5-min Rain = 0
KWVS 262320Z 14015KT 31/15 A3006 RMK A01 T03090147  RH  039%=      5-min Rain = 0
KWVS 262325Z 14012KT 31/15 A3006 RMK A01 T03070149  RH  040%=      5-min Rain = 0
KWVS 262330Z 16013KT 31/15 A3006 RMK A01 T03100150  RH  040%=      5-min Rain = 0
KWVS 262335Z 14015KT 31/15 A3006 RMK A01 T03080145  RH  039%=      5-min Rain = 0
KWVS 262340Z 15012KT 31/15 A3006 RMK A01 T03080147  RH  039%=      5-min Rain = 0
KWVS 262345Z 15013G18KT 31/15 A3006 RMK A01 T03100151  RH  040%=      5-min Rain = 0
KWVS 262350Z 15014KT 31/15 A3006 RMK A01 T03100153  RH  040%=      5-min Rain = 0
KWVS 262355Z 16013KT 31/15 A3006 RMK A01 T03100151  RH  040%=      5-min Rain = 0
KWVS 270000Z 16012G17KT 31/16 A3006 RMK A01 T03120156  RH  041%=      5-min Rain = 0
KWVS 270005Z 14017KT 31/15 A3006 RMK A01 T03090153  RH  041%=      5-min Rain = 0
KWVS 270010Z 14014G20KT 31/15 A3006 RMK A01 T03070150  RH  040%=      5-min Rain = 0
KWVS 270015Z 14013KT 31/15 A3006 RMK A01 T03080150  RH  040%=      5-min Rain = 0
KWVS 270020Z 15012KT 31/15 A3006 RMK A01 T03080154  RH  041%=      5-min Rain = 0
KWVS 270025Z 16012KT 31/15 A3007 RMK A01 T03060153  RH  041%=      5-min Rain = 0
KWVS 270030Z 15013KT 31/15 A3007 RMK A01 T03050153  RH  041%=      5-min Rain = 0
KWVS 270035Z 15013G18KT 30/15 A3007 RMK A01 T03030154  RH  042%=      5-min Rain = 0
KWVS 270040Z 15013G18KT 30/16 A3007 RMK A01 T03020155  RH  043%=      5-min Rain = 0
KWVS 270045Z 16012KT 30/15 A3007 RMK A01 T03010153  RH  043%=      5-min Rain = 0
KWVS 270050Z 16011KT 30/15 A3007 RMK A01 T03000152  RH  043%=      5-min Rain = 0
KWVS 270055Z 16011KT 30/15 A3007 RMK A01 T02970154  RH  044%=      5-min Rain = 0
KWVS 270100Z 15009KT 29/16 A3007 RMK A01 T02940156  RH  045%=      5-min Rain = 0
KWVS 270105Z 16010G15KT 29/16 A3007 RMK A01 T02910156  RH  046%=      5-min Rain = 0
KWVS 270110Z 16011KT 29/16 A3007 RMK A01 T02890157  RH  047%=      5-min Rain = 0
KWVS 270115Z 16010G16KT 29/16 A3007 RMK A01 T02890158  RH  047%=      5-min Rain = 0
KWVS 270120Z 17011KT 29/16 A3007 RMK A01 T02880157  RH  047%=      5-min Rain = 0
KWVS 270125Z 16010KT 29/16 A3008 RMK A01 T02860156  RH  047%=      5-min Rain = 0
KWVS 270130Z 16009KT 28/16 A3008 RMK A01 T02840156  RH  048%=      5-min Rain = 0
KWVS 270135Z 16009KT 28/16 A3008 RMK A01 T02820157  RH  049%=      5-min Rain = 0
KWVS 270140Z 16009KT 28/16 A3008 RMK A01 T02800158  RH  050%=      5-min Rain = 0
KWVS 270145Z 16008KT 28/16 A3008 RMK A01 T02780158  RH  050%=      5-min Rain = 0
KWVS 270150Z 16007KT 28/16 A3008 RMK A01 T02750158  RH  051%=      5-min Rain = 0
KWVS 270155Z 16008KT 27/16 A3008 RMK A01 T02720158  RH  052%=      5-min Rain = 0
KWVS 270200Z 16008KT 27/16 A3009 RMK A01 T02700157  RH  053%=      5-min Rain = 0
KWVS 270205Z 16008KT 27/16 A3009 RMK A01 T02680156  RH  053%=      5-min Rain = 0
KWVS 270210Z 16008KT 27/16 A3009 RMK A01 T02680155  RH  053%=      5-min Rain = 0
KWVS 270215Z 16008KT 27/16 A3009 RMK A01 T02670155  RH  053%=      5-min Rain = 0
KWVS 270220Z 15007KT 27/16 A301 RMK A01 T02650155  RH  053%=      5-min Rain = 0
KWVS 270225Z 14007KT 26/16 A301 RMK A01 T02620155  RH  054%=      5-min Rain = 0
KWVS 270230Z 13006KT 26/16 A301 RMK A01 T02560155  RH  056%=      5-min Rain = 0
KWVS 270235Z 13007KT 25/16 A301 RMK A01 T02530156  RH  058%=      5-min Rain = 0
KWVS 270240Z 13008KT 25/16 A301 RMK A01 T02530157  RH  058%=      5-min Rain = 0
KWVS 270245Z 13007KT 25/16 A3011 RMK A01 T02510158  RH  059%=      5-min Rain = 0
KWVS 270250Z 13007KT 25/16 A3011 RMK A01 T02490159  RH  060%=      5-min Rain = 0
KWVS 270255Z 13007KT 25/16 A3011 RMK A01 T02470160  RH  061%=      5-min Rain = 0
KWVS 270300Z 12007KT 25/16 A3011 RMK A01 T02470160  RH  061%=      5-min Rain = 0
KWVS 270305Z 13007KT 25/16 A3012 RMK A01 T02470161  RH  062%=      5-min Rain = 0
KWVS 270310Z 13007KT 25/16 A3012 RMK A01 T02480161  RH  061%=      5-min Rain = 0
KWVS 270315Z 14007KT 25/16 A3013 RMK A01 T02490161  RH  061%=      5-min Rain = 0
KWVS 270320Z 13005KT 25/16 A3013 RMK A01 T02460162  RH  062%=      5-min Rain = 0
KWVS 270325Z 12006KT 25/16 A3014 RMK A01 T02450164  RH  063%=      5-min Rain = 0
KWVS 270330Z 12007KT 24/17 A3014 RMK A01 T02440165  RH  064%=      5-min Rain = 0
KWVS 270335Z 12007KT 24/17 A3014 RMK A01 T02440166  RH  065%=      5-min Rain = 0
KWVS 270340Z 12007KT 24/17 A3015 RMK A01 T02440167  RH  065%=      5-min Rain = 0
KWVS 270345Z 12007KT 24/17 A3015 RMK A01 T02420167  RH  066%=      5-min Rain = 0
KWVS 270350Z 13007KT 24/17 A3015 RMK A01 T02420168  RH  066%=      5-min Rain = 0
KWVS 270355Z 13006KT 24/17 A3015 RMK A01 T02420168  RH  067%=      5-min Rain = 0
KWVS 270400Z 13006KT 24/17 A3015 RMK A01 T02400168  RH  068%=      5-min Rain = 0
KWVS 270405Z 13006KT 24/17 A3015 RMK A01 T02380169  RH  068%=      5-min Rain = 0
KWVS 270410Z 13006KT 24/17 A3015 RMK A01 T02380169  RH  069%=      5-min Rain = 0
KWVS 270415Z 14006KT 24/17 A3016 RMK A01 T02370169  RH  069%=      5-min Rain = 0
KWVS 270420Z 14005KT 24/17 A3016 RMK A01 T02350169  RH  070%=      5-min Rain = 0
KWVS 270425Z 15005KT 23/17 A3016 RMK A01 T02340169  RH  070%=      5-min Rain = 0
KWVS 270430Z 16004KT 23/17 A3016 RMK A01 T02320169  RH  071%=      5-min Rain = 0
KWVS 270435Z 16003KT 23/17 A3016 RMK A01 T02320168  RH  071%=      5-min Rain = 0
KWVS 270440Z 16003KT 23/17 A3016 RMK A01 T02330168  RH  070%=      5-min Rain = 0
KWVS 270445Z 16003KT 23/17 A3016 RMK A01 T02330168  RH  070%=      5-min Rain = 0
KWVS 270450Z 16003KT 23/17 A3016 RMK A01 T02320168  RH  071%=      5-min Rain = 0
KWVS 270455Z 16004KT 23/17 A3016 RMK A01 T02310168  RH  071%=      5-min Rain = 0

Page generated in 0.009 seconds.